createdAt,value
2022-09-21T00:01:44.077Z,10.80
2022-09-21T00:04:12.884Z,10.80
2022-09-21T00:06:41.659Z,10.70
2022-09-21T00:09:10.457Z,10.70
2022-09-21T00:11:40.631Z,10.60
2022-09-21T00:14:12.220Z,10.60
2022-09-21T00:16:42.474Z,10.50
2022-09-21T00:19:11.955Z,10.50
2022-09-21T00:21:40.784Z,10.40
2022-09-21T00:24:09.756Z,10.30
2022-09-21T00:26:38.529Z,10.30
2022-09-21T00:29:08.731Z,10.20
2022-09-21T00:31:37.644Z,10.20
2022-09-21T00:34:07.811Z,10.10
2022-09-21T00:36:37.303Z,10.10
2022-09-21T00:39:06.136Z,10.00
2022-09-21T00:41:36.071Z,10.00
2022-09-21T00:44:26.300Z,9.90
2022-09-21T00:46:59.088Z,9.90
2022-09-21T00:49:29.237Z,9.80
2022-09-21T00:52:00.340Z,9.80
2022-09-21T00:54:33.681Z,9.80
2022-09-21T00:57:03.473Z,9.70
2022-09-21T00:59:38.647Z,9.70
2022-09-21T01:02:08.294Z,9.60
2022-09-21T01:04:37.693Z,9.60
2022-09-21T01:07:10.783Z,9.50
2022-09-21T01:09:40.102Z,9.50
2022-09-21T01:12:23.774Z,9.40
2022-09-21T01:15:06.604Z,9.40
2022-09-21T01:17:45.060Z,9.30
2022-09-21T01:20:55.364Z,9.30
2022-09-21T01:23:49.018Z,9.20
2022-09-21T01:26:30.210Z,9.20
2022-09-21T01:29:11.838Z,9.10
2022-09-21T01:31:45.546Z,9.10
2022-09-21T01:34:20.821Z,9.00
2022-09-21T01:36:50.626Z,9.00
2022-09-21T01:39:21.048Z,9.00
2022-09-21T01:41:53.401Z,8.90
2022-09-21T01:44:25.819Z,8.90
2022-09-21T01:46:54.924Z,8.90
2022-09-21T01:49:29.488Z,8.90
2022-09-21T01:52:02.288Z,8.80
2022-09-21T01:54:38.012Z,8.80
2022-09-21T01:57:12.411Z,8.80
2022-09-21T01:59:51.542Z,8.70
2022-09-21T02:02:25.172Z,8.60
2022-09-21T02:04:53.876Z,8.60
2022-09-21T02:07:22.505Z,8.60
2022-09-21T02:09:51.087Z,8.50
2022-09-21T02:12:19.537Z,8.50
2022-09-21T02:14:55.425Z,8.50
2022-09-21T02:17:35.842Z,8.40
2022-09-21T02:20:17.500Z,8.40
2022-09-21T02:22:55.920Z,8.40
2022-09-21T02:25:32.696Z,8.30
2022-09-21T02:28:07.561Z,8.30
2022-09-21T02:30:39.488Z,8.30
2022-09-21T02:33:13.783Z,8.20
2022-09-21T02:35:47.112Z,8.20
2022-09-21T02:38:26.405Z,8.30
2022-09-21T02:41:01.661Z,8.10
2022-09-21T02:43:35.050Z,8.10
2022-09-21T02:46:09.571Z,8.10
2022-09-21T02:48:42.886Z,8.10
2022-09-21T02:51:14.956Z,8.00
2022-09-21T02:53:44.703Z,8.00
2022-09-21T02:56:14.587Z,8.00
2022-09-21T02:58:47.593Z,8.00
2022-09-21T03:01:18.855Z,7.90
2022-09-21T03:03:47.222Z,7.90
2022-09-21T03:06:15.732Z,7.80
2022-09-21T03:08:44.297Z,7.80
2022-09-21T03:11:17.030Z,7.80
2022-09-21T03:13:45.852Z,7.80
2022-09-21T03:16:14.785Z,7.80
2022-09-21T03:18:45.042Z,7.70
2022-09-21T03:21:14.103Z,7.70
2022-09-21T03:23:42.451Z,7.70
2022-09-21T03:26:10.835Z,7.70
2022-09-21T03:28:39.309Z,7.60
2022-09-21T03:31:07.824Z,7.60
2022-09-21T03:33:36.385Z,7.60
2022-09-21T03:36:06.520Z,7.60
2022-09-21T03:38:36.032Z,7.50
2022-09-21T03:41:04.827Z,7.50
2022-09-21T03:43:33.469Z,7.50
2022-09-21T03:46:01.909Z,7.50
2022-09-21T03:48:30.981Z,7.50
2022-09-21T03:50:59.402Z,7.50
2022-09-21T03:53:29.175Z,7.40
2022-09-21T03:55:58.907Z,7.50
2022-09-21T03:58:27.395Z,7.40
2022-09-21T04:00:55.791Z,7.50
2022-09-21T04:03:24.185Z,7.50
2022-09-21T04:05:52.648Z,7.50
2022-09-21T04:08:21.036Z,7.40
2022-09-21T04:10:51.334Z,7.50
2022-09-21T04:13:19.828Z,7.60
2022-09-21T04:15:48.180Z,7.50
2022-09-21T04:18:16.571Z,7.40
2022-09-21T04:20:44.939Z,7.30
2022-09-21T04:23:13.341Z,7.50
2022-09-21T04:25:41.860Z,7.30
2022-09-21T04:28:11.607Z,7.30
2022-09-21T04:30:40.254Z,7.30
2022-09-21T04:33:08.727Z,7.30
2022-09-21T04:35:37.419Z,7.20
2022-09-21T04:38:05.976Z,7.20
2022-09-21T04:40:34.427Z,7.20
2022-09-21T04:43:02.796Z,7.20
2022-09-21T04:45:32.617Z,7.20
2022-09-21T04:48:00.979Z,7.20
2022-09-21T04:50:29.408Z,7.20
2022-09-21T04:53:05.692Z,7.20
2022-09-21T04:55:34.128Z,7.10
2022-09-21T04:58:02.723Z,7.20
2022-09-21T05:00:32.775Z,7.10
2022-09-21T05:03:01.144Z,7.10
2022-09-21T05:05:29.604Z,7.00
2022-09-21T05:07:58.092Z,7.00
2022-09-21T05:10:25.564Z,7.00
2022-09-21T05:12:53.989Z,6.90
2022-09-21T05:15:22.377Z,6.90
2022-09-21T05:17:52.126Z,6.90
2022-09-21T05:20:20.573Z,6.90
2022-09-21T05:22:48.952Z,6.90
2022-09-21T05:25:17.478Z,6.90
2022-09-21T05:27:45.852Z,6.90
2022-09-21T05:30:15.583Z,6.80
2022-09-21T05:32:48.933Z,6.90
2022-09-21T05:35:28.214Z,6.80
2022-09-21T05:38:02.135Z,6.80
2022-09-21T05:40:31.197Z,6.80
2022-09-21T05:43:00.100Z,6.80
2022-09-21T05:45:29.816Z,6.80
2022-09-21T05:48:07.796Z,6.80
2022-09-21T05:50:49.759Z,6.80
2022-09-21T05:53:44.946Z,6.80
2022-09-21T05:56:25.034Z,6.80
2022-09-21T05:59:03.066Z,6.80
2022-09-21T06:01:43.053Z,6.80
2022-09-21T06:04:12.863Z,6.80
2022-09-21T06:06:42.611Z,6.80
2022-09-21T06:09:11.039Z,7.10
2022-09-21T06:11:39.535Z,6.80
2022-09-21T06:14:07.980Z,6.80
2022-09-21T06:16:39.693Z,6.80
2022-09-21T06:19:08.239Z,6.80
2022-09-21T06:21:36.717Z,6.80
2022-09-21T06:24:06.835Z,6.80
2022-09-21T06:26:35.267Z,6.90
2022-09-21T06:29:03.623Z,6.90
2022-09-21T06:31:32.169Z,7.00
2022-09-21T06:34:00.870Z,7.10
2022-09-21T06:36:29.256Z,7.20
2022-09-21T06:38:57.779Z,7.30
2022-09-21T06:41:27.616Z,7.40
2022-09-21T06:43:57.208Z,7.50
2022-09-21T06:46:25.840Z,7.60
2022-09-21T06:48:54.309Z,7.80
2022-09-21T06:51:23.971Z,7.90
2022-09-21T06:53:56.628Z,8.10
2022-09-21T06:56:27.132Z,8.40
2022-09-21T06:58:56.337Z,8.80
2022-09-21T07:01:24.981Z,9.20
2022-09-21T07:03:54.221Z,9.70
2022-09-21T07:06:22.663Z,10.10
2022-09-21T07:11:43.075Z,11.10
2022-09-21T07:14:11.468Z,11.70
2022-09-21T07:16:40.120Z,12.10
2022-09-21T07:19:12.073Z,12.50
2022-09-21T07:21:40.683Z,13.00
2022-09-21T07:24:12.459Z,13.50
2022-09-21T07:26:42.688Z,14.10
2022-09-21T07:29:11.268Z,14.60
2022-09-21T07:31:39.881Z,15.00
2022-09-21T07:34:08.447Z,15.40
2022-09-21T07:36:36.935Z,15.80
2022-09-21T07:39:05.853Z,16.20
2022-09-21T07:41:34.285Z,16.60
2022-09-21T07:44:04.354Z,17.10
2022-09-21T07:46:32.825Z,17.30
2022-09-21T07:49:01.272Z,17.70
2022-09-21T07:51:29.700Z,18.10
2022-09-21T07:53:58.262Z,18.50
2022-09-21T07:56:27.302Z,18.80
2022-09-21T07:59:06.507Z,19.10
2022-09-21T08:01:37.697Z,19.50
2022-09-21T08:04:07.683Z,19.90
2022-09-21T08:06:39.769Z,20.10
2022-09-21T08:09:08.452Z,20.40
2022-09-21T08:11:38.359Z,20.70
2022-09-21T08:14:06.929Z,20.70
2022-09-21T08:16:39.525Z,21.00
2022-09-21T08:19:08.100Z,21.20
2022-09-21T08:21:36.585Z,21.40
2022-09-21T08:24:05.347Z,21.50
2022-09-21T08:26:34.912Z,21.70
2022-09-21T08:29:03.648Z,21.80
2022-09-21T08:31:32.118Z,21.90
2022-09-21T08:34:02.136Z,22.00
2022-09-21T08:36:30.532Z,22.00
2022-09-21T08:38:59.019Z,22.10
2022-09-21T08:41:44.781Z,22.10
2022-09-21T08:44:17.889Z,22.10
2022-09-21T08:46:48.917Z,22.10
2022-09-21T08:49:23.569Z,22.20
2022-09-21T08:51:57.378Z,22.40
2022-09-21T08:54:31.515Z,22.50
2022-09-21T08:57:05.342Z,22.50
2022-09-21T08:59:35.315Z,22.60
2022-09-21T09:02:19.126Z,22.60
2022-09-21T09:04:57.027Z,22.70
2022-09-21T09:07:58.773Z,22.80
2022-09-21T09:10:37.690Z,22.90
2022-09-21T09:13:27.459Z,23.00
2022-09-21T09:16:04.159Z,23.00
2022-09-21T09:18:43.666Z,23.10
2022-09-21T09:21:27.519Z,23.10
2022-09-21T09:24:03.125Z,23.00
2022-09-21T09:26:37.329Z,23.00
2022-09-21T09:29:12.568Z,22.90
2022-09-21T09:31:41.983Z,23.00
2022-09-21T09:34:15.400Z,22.90
2022-09-21T09:37:04.358Z,22.80
2022-09-21T09:39:33.007Z,22.70
2022-09-21T09:42:25.340Z,22.60
2022-09-21T09:45:24.626Z,22.60
2022-09-21T09:48:12.897Z,22.60
2022-09-21T09:50:43.454Z,22.60
2022-09-21T09:53:16.789Z,22.70
2022-09-21T09:55:48.896Z,22.60
2022-09-21T09:58:20.749Z,22.40
2022-09-21T10:00:53.695Z,22.30
2022-09-21T10:03:24.117Z,22.20
2022-09-21T10:05:52.912Z,22.00
2022-09-21T10:08:41.959Z,22.00
2022-09-21T10:11:12.226Z,21.90
2022-09-21T10:13:42.498Z,21.90
2022-09-21T10:16:14.993Z,22.00
2022-09-21T10:18:48.191Z,22.10
2022-09-21T10:21:23.014Z,21.90
2022-09-21T10:23:57.872Z,21.90
2022-09-21T10:26:32.577Z,22.00
2022-09-21T10:29:02.912Z,22.00
2022-09-21T10:31:32.396Z,22.00
2022-09-21T10:34:14.501Z,22.20
2022-09-21T10:36:51.118Z,22.30
2022-09-21T10:39:24.476Z,22.10
2022-09-21T10:41:55.870Z,22.20
2022-09-21T10:44:28.623Z,22.20
2022-09-21T10:46:58.132Z,22.20
2022-09-21T10:49:28.887Z,22.40
2022-09-21T10:51:59.195Z,22.50
2022-09-21T10:54:32.377Z,22.60
2022-09-21T10:57:03.982Z,22.80
2022-09-21T10:59:33.904Z,22.80
2022-09-21T11:02:04.331Z,22.90
2022-09-21T11:04:39.376Z,23.10
2022-09-21T11:07:15.767Z,23.20
2022-09-21T11:09:51.397Z,23.20
2022-09-21T11:12:42.156Z,23.30
2022-09-21T11:15:19.154Z,23.20
2022-09-21T11:17:53.122Z,23.30
2022-09-21T11:20:29.206Z,23.50
2022-09-21T11:23:05.858Z,23.50
2022-09-21T11:25:44.161Z,23.50
2022-09-21T11:28:22.174Z,23.60
2022-09-21T11:31:13.200Z,23.70
2022-09-21T11:34:13.393Z,23.80
2022-09-21T11:36:54.386Z,24.00
2022-09-21T11:39:31.066Z,24.00
2022-09-21T11:42:16.127Z,24.00
2022-09-21T11:44:55.468Z,24.00
2022-09-21T11:47:47.427Z,23.90
2022-09-21T11:50:31.343Z,23.80
2022-09-21T11:53:14.422Z,23.70
2022-09-21T11:55:58.235Z,23.80
2022-09-21T11:58:33.585Z,23.90
2022-09-21T12:01:20.050Z,24.00
2022-09-21T12:04:03.765Z,24.10
2022-09-21T12:06:43.813Z,24.10
2022-09-21T12:09:38.743Z,24.30
2022-09-21T12:12:14.989Z,24.40
2022-09-21T12:14:54.019Z,24.20
2022-09-21T12:17:32.315Z,23.70
2022-09-21T12:20:07.164Z,23.00
2022-09-21T12:22:39.789Z,22.40
2022-09-21T12:25:16.916Z,21.80
2022-09-21T12:27:50.215Z,21.30
2022-09-21T12:30:22.316Z,21.20
2022-09-21T12:33:00.500Z,21.40
2022-09-21T12:35:34.451Z,21.80
2022-09-21T12:38:10.132Z,21.70
2022-09-21T12:40:42.493Z,21.40
2022-09-21T12:43:23.288Z,20.90
2022-09-21T12:45:57.913Z,20.40
2022-09-21T12:48:32.792Z,20.10
2022-09-21T12:51:08.340Z,19.80
2022-09-21T12:53:39.690Z,19.70
2022-09-21T12:56:13.652Z,19.80
2022-09-21T12:59:03.833Z,19.90
2022-09-21T13:01:38.614Z,20.10
2022-09-21T13:04:41.784Z,20.30
2022-09-21T13:07:49.627Z,20.30
2022-09-21T13:10:22.377Z,20.40
2022-09-21T13:12:55.154Z,20.20
2022-09-21T13:15:28.299Z,20.00
2022-09-21T13:18:04.251Z,19.70
2022-09-21T13:20:38.459Z,19.60
2022-09-21T13:23:07.700Z,19.40
2022-09-21T13:25:37.613Z,19.30
2022-09-21T13:28:19.621Z,19.30
2022-09-21T13:30:49.491Z,19.40
2022-09-21T13:33:41.792Z,19.80
2022-09-21T13:36:32.083Z,19.60
2022-09-21T13:39:17.033Z,19.80
2022-09-21T13:42:02.316Z,20.00
2022-09-21T13:44:46.217Z,20.30
2022-09-21T13:47:14.754Z,20.50
2022-09-21T13:49:54.833Z,20.70
2022-09-21T13:52:39.363Z,20.90
2022-09-21T13:55:29.495Z,21.00
2022-09-21T13:58:02.095Z,21.10
2022-09-21T14:00:39.375Z,21.20
2022-09-21T14:03:21.986Z,21.30
2022-09-21T14:05:54.038Z,21.50
2022-09-21T14:08:27.019Z,21.40
2022-09-21T14:10:59.853Z,21.50
2022-09-21T14:13:35.759Z,21.50
2022-09-21T14:16:26.886Z,21.60
2022-09-21T14:18:55.572Z,21.60
2022-09-21T14:21:25.400Z,21.60
2022-09-21T14:24:27.830Z,21.70
2022-09-21T14:27:03.386Z,21.70
2022-09-21T14:29:40.295Z,21.60
2022-09-21T14:32:18.120Z,21.50
2022-09-21T14:34:49.854Z,21.50
2022-09-21T14:37:30.088Z,21.40
2022-09-21T14:40:01.309Z,21.20
2022-09-21T14:42:31.911Z,21.10
2022-09-21T14:45:02.278Z,21.00
2022-09-21T14:47:48.806Z,20.80
2022-09-21T14:50:43.433Z,20.70
2022-09-21T14:53:39.337Z,20.70
2022-09-21T14:56:22.886Z,20.60
2022-09-21T14:59:03.026Z,20.40
2022-09-21T15:01:41.316Z,20.30
2022-09-21T15:04:31.335Z,20.20
2022-09-21T15:07:43.932Z,20.00
2022-09-21T15:10:53.060Z,19.90
2022-09-21T15:13:53.433Z,19.80
2022-09-21T15:16:36.607Z,19.70
2022-09-21T15:19:21.750Z,19.70
2022-09-21T15:21:51.594Z,19.50
2022-09-21T15:24:29.308Z,19.50
2022-09-21T15:27:05.428Z,19.40
2022-09-21T15:29:34.769Z,19.40
2022-09-21T15:32:03.528Z,19.40
2022-09-21T15:34:32.206Z,19.40
2022-09-21T15:37:16.910Z,19.40
2022-09-21T15:39:45.460Z,19.30
2022-09-21T15:42:19.911Z,19.30
2022-09-21T15:44:50.612Z,19.10
2022-09-21T15:47:22.981Z,19.10
2022-09-21T15:49:53.950Z,19.10
2022-09-21T15:52:29.329Z,18.90
2022-09-21T15:55:00.333Z,18.80
2022-09-21T15:57:39.067Z,18.70
2022-09-21T16:00:20.328Z,18.70
2022-09-21T16:03:05.620Z,18.80
2022-09-21T16:05:44.025Z,18.60
2022-09-21T16:08:34.413Z,18.60
2022-09-21T16:11:16.108Z,18.60
2022-09-21T16:14:04.646Z,18.60
2022-09-21T16:16:33.289Z,18.60
2022-09-21T16:19:01.813Z,18.70
2022-09-21T16:21:33.975Z,18.80
2022-09-21T16:24:12.597Z,18.90
2022-09-21T16:26:42.167Z,18.90
2022-09-21T16:29:23.457Z,19.10
2022-09-21T16:31:51.989Z,19.00
2022-09-21T16:34:35.247Z,19.00
2022-09-21T16:37:18.047Z,19.00
2022-09-21T16:39:46.475Z,18.80
2022-09-21T16:42:15.087Z,18.60
2022-09-21T16:44:45.443Z,18.40
2022-09-21T16:47:16.444Z,18.20
2022-09-21T16:49:45.123Z,18.20
2022-09-21T16:52:13.581Z,17.90
2022-09-21T16:54:41.960Z,17.80
2022-09-21T16:57:14.310Z,17.50
2022-09-21T16:59:44.135Z,17.30
2022-09-21T17:02:14.278Z,17.10
2022-09-21T17:04:43.094Z,17.00
2022-09-21T17:07:12.938Z,16.80
2022-09-21T17:09:44.354Z,16.60
2022-09-21T17:12:14.671Z,16.40
2022-09-21T17:14:47.020Z,16.20
2022-09-21T17:17:18.814Z,16.00
2022-09-21T17:19:49.771Z,15.90
2022-09-21T17:22:18.945Z,15.70
2022-09-21T17:24:51.432Z,15.50
2022-09-21T17:27:22.550Z,15.30
2022-09-21T17:29:53.811Z,15.20
2022-09-21T17:32:25.230Z,15.00
2022-09-21T17:34:58.864Z,14.90
2022-09-21T17:37:27.417Z,14.70
2022-09-21T17:39:55.844Z,14.70
2022-09-21T17:42:25.789Z,14.50
2022-09-21T17:45:12.348Z,14.40
2022-09-21T17:47:41.648Z,14.20
2022-09-21T17:50:24.123Z,14.10
2022-09-21T17:53:10.691Z,14.00
2022-09-21T17:55:40.465Z,13.90
2022-09-21T17:58:28.916Z,13.80
2022-09-21T18:01:03.310Z,13.60
2022-09-21T18:03:35.812Z,13.50
2022-09-21T18:06:04.959Z,13.40
2022-09-21T18:08:35.979Z,13.30
2022-09-21T18:11:14.547Z,13.20
2022-09-21T18:13:55.059Z,13.20
2022-09-21T18:16:35.575Z,13.10
2022-09-21T18:19:23.271Z,13.00
2022-09-21T18:21:58.059Z,12.90
2022-09-21T18:24:31.348Z,12.80
2022-09-21T18:27:01.728Z,12.70
2022-09-21T18:29:40.070Z,12.70
2022-09-21T18:32:41.020Z,12.60
2022-09-21T18:35:19.625Z,12.50
2022-09-21T18:38:00.944Z,12.60
2022-09-21T18:40:37.191Z,12.40
2022-09-21T18:43:18.730Z,12.40
2022-09-21T18:45:52.347Z,12.30
2022-09-21T18:48:32.714Z,12.20
2022-09-21T18:51:11.569Z,12.10
2022-09-21T18:53:46.220Z,12.10
2022-09-21T18:56:15.483Z,12.00
2022-09-21T18:58:44.480Z,11.90
2022-09-21T19:01:14.292Z,11.80
2022-09-21T19:03:45.007Z,11.80
2022-09-21T19:06:47.503Z,11.70
2022-09-21T19:09:32.084Z,11.70
2022-09-21T19:12:11.711Z,11.60
2022-09-21T19:14:48.284Z,11.50
2022-09-21T19:17:27.477Z,11.50
2022-09-21T19:20:10.775Z,11.40
2022-09-21T19:22:47.616Z,11.40
2022-09-21T19:25:24.797Z,11.40
2022-09-21T19:27:59.137Z,11.30
2022-09-21T19:30:28.440Z,11.30
2022-09-21T19:32:58.414Z,11.30
2022-09-21T19:35:30.046Z,11.20
2022-09-21T19:38:01.323Z,11.20
2022-09-21T19:40:32.414Z,11.20
2022-09-21T19:43:20.610Z,11.10
2022-09-21T19:46:06.893Z,11.00
2022-09-21T19:48:43.103Z,11.00
2022-09-21T19:51:19.735Z,10.90
2022-09-21T19:54:12.648Z,10.90
2022-09-21T19:57:05.135Z,10.80
2022-09-21T19:59:44.525Z,10.80
2022-09-21T20:02:15.648Z,10.70
2022-09-21T20:04:50.686Z,10.60
2022-09-21T20:07:30.608Z,10.60
2022-09-21T20:10:09.723Z,10.60
2022-09-21T20:12:45.041Z,10.60
2022-09-21T20:15:16.895Z,10.50
2022-09-21T20:17:50.859Z,10.40
2022-09-21T20:20:23.893Z,10.40
2022-09-21T20:22:54.688Z,10.40
2022-09-21T20:25:28.447Z,10.40
2022-09-21T20:27:58.172Z,10.30
2022-09-21T20:30:28.328Z,10.30
2022-09-21T20:32:59.955Z,10.30
2022-09-21T20:35:30.275Z,10.20
2022-09-21T20:38:02.766Z,10.20
2022-09-21T20:40:32.655Z,10.20
2022-09-21T20:43:01.842Z,10.30
2022-09-21T20:45:32.215Z,10.10
2022-09-21T20:48:12.986Z,10.10
2022-09-21T20:50:42.242Z,10.00
2022-09-21T20:53:12.532Z,10.00
2022-09-21T20:55:41.322Z,9.90
2022-09-21T20:58:12.594Z,9.90
2022-09-21T21:00:41.071Z,9.90
2022-09-21T21:03:09.450Z,9.90
2022-09-21T21:05:37.841Z,9.90
2022-09-21T21:08:07.197Z,9.80
2022-09-21T21:10:37.229Z,9.70
2022-09-21T21:13:06.189Z,9.70
2022-09-21T21:15:34.660Z,9.70
2022-09-21T21:18:03.139Z,9.70
2022-09-21T21:20:31.569Z,9.60
2022-09-21T21:23:03.397Z,9.60
2022-09-21T21:25:34.263Z,9.60
2022-09-21T21:28:04.495Z,9.50
2022-09-21T21:30:32.973Z,9.50
2022-09-21T21:33:01.759Z,9.50
2022-09-21T21:35:31.246Z,9.40
2022-09-21T21:37:59.755Z,9.50
2022-09-21T21:40:28.411Z,9.40
2022-09-21T21:42:57.196Z,9.40
2022-09-21T21:45:26.980Z,9.30
2022-09-21T21:47:55.650Z,9.30
2022-09-21T21:50:24.068Z,9.30
2022-09-21T21:52:52.476Z,9.20
2022-09-21T21:55:20.876Z,9.20
2022-09-21T21:57:49.289Z,9.30
2022-09-21T22:00:17.786Z,9.10
2022-09-21T22:02:47.643Z,9.00
2022-09-21T22:05:16.111Z,9.00
2022-09-21T22:07:44.464Z,9.00
2022-09-21T22:10:13.157Z,9.10
2022-09-21T22:12:42.863Z,8.90
2022-09-21T22:15:12.213Z,9.00
2022-09-21T22:17:40.883Z,8.90
2022-09-21T22:20:11.282Z,8.80
2022-09-21T22:22:39.658Z,8.80
2022-09-21T22:25:09.434Z,8.80
2022-09-21T22:27:37.819Z,8.80
2022-09-21T22:30:07.464Z,8.70
2022-09-21T22:32:36.091Z,8.70
2022-09-21T22:35:05.091Z,8.70
2022-09-21T22:37:34.837Z,8.60
2022-09-21T22:40:03.575Z,8.80
2022-09-21T22:42:32.036Z,8.50
2022-09-21T22:45:00.463Z,8.50
2022-09-21T22:47:28.866Z,8.40
2022-09-21T22:49:57.653Z,8.40
2022-09-21T22:52:26.008Z,8.40
2022-09-21T22:54:55.752Z,8.30
2022-09-21T22:57:24.139Z,8.30
2022-09-21T22:59:52.459Z,8.30
2022-09-21T23:02:20.872Z,8.20
2022-09-21T23:04:49.317Z,8.30
2022-09-21T23:07:17.723Z,8.20
2022-09-21T23:09:46.172Z,8.20
2022-09-21T23:12:15.935Z,8.10
2022-09-21T23:14:44.557Z,8.10
2022-09-21T23:17:12.916Z,8.10
2022-09-21T23:19:41.288Z,8.10
2022-09-21T23:22:09.691Z,8.00
2022-09-21T23:24:38.054Z,8.00
2022-09-21T23:27:06.632Z,8.00
2022-09-21T23:29:36.525Z,8.00
2022-09-21T23:32:05.017Z,8.00
2022-09-21T23:34:33.392Z,8.00
2022-09-21T23:37:01.856Z,8.10
2022-09-21T23:39:30.246Z,7.90
2022-09-21T23:41:58.691Z,7.90
2022-09-21T23:44:27.109Z,7.90
2022-09-21T23:46:57.032Z,7.80
2022-09-21T23:49:25.542Z,7.80
2022-09-21T23:51:54.005Z,7.80
2022-09-21T23:54:22.520Z,7.80
2022-09-21T23:56:50.879Z,7.70
2022-09-21T23:59:19.445Z,7.70
